Decoded Metar for KVNW ( in ) (IATA:) | Meteo·Mobile Aviation Weather
aviador You're here:

KVNW Decoded Metar

in
Report Time2019-09-21 09:55:00
UTC Time2019-09-21 09:51:50
Flight Rules vfr VFR
WindCalm
Visibility9999 m
Phenomena:N/A
Clouds:N/A
Expected CloudBase > 400 ft AGL from Temp-Dew spread
CeilingNone
Temp17°C
Dew Point16°C (94% RH)
QNH1022 hPa
Raw Report
KVNW 210955Z AUTO 00000KT 7SM CLR 17/16 A3018 RMK AO2=

Extra information for KVNW:More info

Social comments